This is the latest recevied weather packets stored in our database for station/object K4VEB. If no packets are shown the sender has not sent any weather packets the latest 10 day(s).
| Time | Temp. | Humidity | Pressure | Rain* | Wind** | Luminosity | Snow |
|---|---|---|---|---|---|---|---|
| 1777954398 | 18.89° C | 75% | 1016.6 hPa | 0 mm | - | 0 W/m² | - |
| 1777954095 | 19.44° C | 74% | 1016.5 hPa | 0 mm | - | 0 W/m² | - |
| 1777953793 | 19.44° C | 74% | 1016.6 hPa | 0 mm | - | 0 W/m² | - |
| 1777953489 | 19.44° C | 73% | 1016.3 hPa | 0 mm | - | 0 W/m² | - |
| 1777953185 | 20° C | 73% | 1016.4 hPa | 0 mm | - | 0 W/m² | - |
| 1777952883 | 20° C | 73% | 1016.4 hPa | 0 mm | - | 0 W/m² | - |
| 1777952579 | 20° C | 73% | 1016 hPa | 0 mm | - | 0 W/m² | - |
| 1777950154 | 21.11° C | 68% | 1016.5 hPa | 0 mm | - | 0 W/m² | - |
| 1777949850 | 21.11° C | 68% | 1016.5 hPa | 0 mm | - | 0 W/m² | - |
| 1777949548 | 21.11° C | 68% | 1016.5 hPa | 0 mm | - | 0 W/m² | - |
| 1777949246 | 21.11° C | 68% | 1016.5 hPa | 0 mm | - | 0 W/m² | - |
| 1777948640 | 21.11° C | 67% | 1016.3 hPa | 0 mm | - | 0 W/m² | - |
| 1777948337 | 21.11° C | 67% | 1016.4 hPa | 0 mm | - | 0 W/m² | - |
| 1777947732 | 21.67° C | 66% | 1016.3 hPa | 0 mm | - | 0 W/m² | - |
| 1777947428 | 21.67° C | 66% | 1016.4 hPa | 0 mm | - | 0 W/m² | - |
| 1777947125 | 21.67° C | 66% | 1016.3 hPa | 0 mm | - | 0 W/m² | - |
| 1777946821 | 21.67° C | 65% | 1016.1 hPa | 0 mm | - | 0 W/m² | - |
| 1777946516 | 21.67° C | 65% | 1016.1 hPa | 0 mm | - | 0 W/m² | - |
| 1777946214 | 21.67° C | 65% | 1016.1 hPa | 0 mm | - | 0 W/m² | - |
| 1777945911 | 21.67° C | 65% | 1016 hPa | 0 mm | - | 0 W/m² | - |
| 1777945608 | 21.67° C | 64% | 1016 hPa | 0 mm | - | 0 W/m² | - |
| 1777945305 | 22.22° C | 64% | 1016 hPa | 0 mm | - | 0 W/m² | - |
| 1777945002 | 22.22° C | 63% | 1015.8 hPa | 0 mm | - | 0 W/m² | - |
| 1777944699 | 22.22° C | 63% | 1015.7 hPa | 0 mm | - | 0 W/m² | - |
| 1777944398 | 22.22° C | 62% | 1015.8 hPa | 0 mm | - | 0 W/m² | - |
* Rain latest hour (hover to see other rain measurements)
** Current wind speed in m/s (hover to see current wind gust speed)